sensor_id;sensor_type;location;lat;lon;timestamp;P1;durP1;ratioP1;P2;durP2;ratioP2
76380;SDS011;65202;52.520;10.528;2023-12-20T00:01:09;7.50;;;5.45;;
76380;SDS011;65202;52.520;10.528;2023-12-20T00:03:36;7.68;;;5.43;;
76380;SDS011;65202;52.520;10.528;2023-12-20T00:06:09;9.90;;;5.73;;
76380;SDS011;65202;52.520;10.528;2023-12-20T00:08:37;8.35;;;5.50;;
76380;SDS011;65202;52.520;10.528;2023-12-20T00:11:04;9.10;;;5.63;;
76380;SDS011;65202;52.520;10.528;2023-12-20T00:13:31;8.93;;;5.43;;
76380;SDS011;65202;52.520;10.528;2023-12-20T00:15:59;10.32;;;4.60;;
76380;SDS011;65202;52.520;10.528;2023-12-20T00:18:26;10.20;;;5.10;;
76380;SDS011;65202;52.520;10.528;2023-12-20T00:20:53;8.95;;;5.30;;
76380;SDS011;65202;52.520;10.528;2023-12-20T00:23:21;13.02;;;5.70;;
76380;SDS011;65202;52.520;10.528;2023-12-20T00:25:50;11.13;;;5.22;;
76380;SDS011;65202;52.520;10.528;2023-12-20T00:28:17;12.23;;;5.05;;
76380;SDS011;65202;52.520;10.528;2023-12-20T00:30:44;10.65;;;4.95;;
76380;SDS011;65202;52.520;10.528;2023-12-20T00:33:11;15.65;;;4.80;;
76380;SDS011;65202;52.520;10.528;2023-12-20T00:35:39;11.70;;;5.03;;
76380;SDS011;65202;52.520;10.528;2023-12-20T00:38:07;16.58;;;4.80;;
76380;SDS011;65202;52.520;10.528;2023-12-20T00:40:35;14.48;;;4.97;;
76380;SDS011;65202;52.520;10.528;2023-12-20T00:43:02;16.60;;;5.32;;
76380;SDS011;65202;52.520;10.528;2023-12-20T00:45:30;13.80;;;5.28;;
76380;SDS011;65202;52.520;10.528;2023-12-20T00:47:57;9.48;;;5.15;;
76380;SDS011;65202;52.520;10.528;2023-12-20T00:50:26;16.15;;;5.05;;
76380;SDS011;65202;52.520;10.528;2023-12-20T00:52:56;17.35;;;5.13;;
76380;SDS011;65202;52.520;10.528;2023-12-20T00:55:23;19.50;;;4.40;;
76380;SDS011;65202;52.520;10.528;2023-12-20T00:57:51;16.75;;;4.35;;
76380;SDS011;65202;52.520;10.528;2023-12-20T01:00:20;12.75;;;4.07;;
76380;SDS011;65202;52.520;10.528;2023-12-20T01:02:47;22.73;;;3.70;;
76380;SDS011;65202;52.520;10.528;2023-12-20T01:05:17;14.48;;;3.40;;
76380;SDS011;65202;52.520;10.528;2023-12-20T01:07:46;16.15;;;3.20;;
76380;SDS011;65202;52.520;10.528;2023-12-20T01:10:13;14.52;;;2.83;;
76380;SDS011;65202;52.520;10.528;2023-12-20T01:12:41;18.85;;;3.35;;
76380;SDS011;65202;52.520;10.528;2023-12-20T01:15:08;16.73;;;3.97;;
76380;SDS011;65202;52.520;10.528;2023-12-20T01:17:36;16.33;;;3.25;;
76380;SDS011;65202;52.520;10.528;2023-12-20T01:20:03;19.30;;;4.00;;
76380;SDS011;65202;52.520;10.528;2023-12-20T01:22:31;17.02;;;3.58;;
76380;SDS011;65202;52.520;10.528;2023-12-20T01:24:58;14.07;;;3.20;;
76380;SDS011;65202;52.520;10.528;2023-12-20T01:27:26;13.70;;;3.28;;
76380;SDS011;65202;52.520;10.528;2023-12-20T01:29:53;21.55;;;4.32;;
76380;SDS011;65202;52.520;10.528;2023-12-20T01:32:21;15.95;;;3.53;;
76380;SDS011;65202;52.520;10.528;2023-12-20T01:34:48;24.98;;;5.30;;
76380;SDS011;65202;52.520;10.528;2023-12-20T01:37:15;22.10;;;4.80;;
76380;SDS011;65202;52.520;10.528;2023-12-20T01:39:43;20.40;;;4.03;;
76380;SDS011;65202;52.520;10.528;2023-12-20T01:42:10;19.02;;;4.10;;
76380;SDS011;65202;52.520;10.528;2023-12-20T01:44:38;15.65;;;3.78;;
76380;SDS011;65202;52.520;10.528;2023-12-20T01:47:05;18.27;;;3.60;;
76380;SDS011;65202;52.520;10.528;2023-12-20T01:49:33;14.05;;;3.72;;
76380;SDS011;65202;52.520;10.528;2023-12-20T01:52:00;12.95;;;2.90;;
76380;SDS011;65202;52.520;10.528;2023-12-20T01:54:28;17.70;;;3.15;;
76380;SDS011;65202;52.520;10.528;2023-12-20T01:56:55;16.65;;;3.28;;
76380;SDS011;65202;52.520;10.528;2023-12-20T01:59:23;18.85;;;3.17;;
76380;SDS011;65202;52.520;10.528;2023-12-20T02:01:50;19.50;;;3.33;;
76380;SDS011;65202;52.520;10.528;2023-12-20T02:04:18;20.42;;;3.10;;
76380;SDS011;65202;52.520;10.528;2023-12-20T02:06:46;18.58;;;3.40;;
76380;SDS011;65202;52.520;10.528;2023-12-20T02:09:14;21.15;;;3.85;;
76380;SDS011;65202;52.520;10.528;2023-12-20T02:11:42;23.10;;;4.93;;
76380;SDS011;65202;52.520;10.528;2023-12-20T02:14:10;21.95;;;3.90;;
76380;SDS011;65202;52.520;10.528;2023-12-20T02:16:37;17.42;;;3.38;;
76380;SDS011;65202;52.520;10.528;2023-12-20T02:19:05;17.27;;;3.83;;
76380;SDS011;65202;52.520;10.528;2023-12-20T02:21:41;17.27;;;3.88;;
76380;SDS011;65202;52.520;10.528;2023-12-20T02:24:09;17.65;;;3.40;;
76380;SDS011;65202;52.520;10.528;2023-12-20T02:26:36;21.42;;;4.63;;
76380;SDS011;65202;52.520;10.528;2023-12-20T02:29:03;21.55;;;4.32;;
76380;SDS011;65202;52.520;10.528;2023-12-20T02:31:31;17.60;;;4.45;;
76380;SDS011;65202;52.520;10.528;2023-12-20T02:33:58;22.88;;;4.75;;
76380;SDS011;65202;52.520;10.528;2023-12-20T02:36:26;21.38;;;4.45;;
76380;SDS011;65202;52.520;10.528;2023-12-20T02:38:53;20.08;;;4.28;;
76380;SDS011;65202;52.520;10.528;2023-12-20T02:41:21;19.38;;;4.05;;
76380;SDS011;65202;52.520;10.528;2023-12-20T02:43:48;15.40;;;3.40;;
76380;SDS011;65202;52.520;10.528;2023-12-20T02:46:15;16.60;;;3.38;;
76380;SDS011;65202;52.520;10.528;2023-12-20T02:48:44;19.23;;;3.72;;
76380;SDS011;65202;52.520;10.528;2023-12-20T02:51:11;19.42;;;3.63;;
76380;SDS011;65202;52.520;10.528;2023-12-20T02:53:39;16.65;;;3.30;;
76380;SDS011;65202;52.520;10.528;2023-12-20T02:56:06;18.35;;;3.65;;
76380;SDS011;65202;52.520;10.528;2023-12-20T02:58:33;17.52;;;3.40;;
76380;SDS011;65202;52.520;10.528;2023-12-20T03:01:00;22.35;;;3.53;;
76380;SDS011;65202;52.520;10.528;2023-12-20T03:03:27;27.50;;;5.00;;
76380;SDS011;65202;52.520;10.528;2023-12-20T03:05:55;16.30;;;2.83;;
76380;SDS011;65202;52.520;10.528;2023-12-20T03:08:22;22.45;;;3.63;;
76380;SDS011;65202;52.520;10.528;2023-12-20T03:10:49;15.25;;;3.15;;
76380;SDS011;65202;52.520;10.528;2023-12-20T03:13:17;15.93;;;2.83;;
76380;SDS011;65202;52.520;10.528;2023-12-20T03:15:45;16.30;;;2.63;;
76380;SDS011;65202;52.520;10.528;2023-12-20T03:18:13;15.13;;;3.17;;
76380;SDS011;65202;52.520;10.528;2023-12-20T03:20:40;24.25;;;3.83;;
76380;SDS011;65202;52.520;10.528;2023-12-20T03:23:08;23.60;;;3.33;;
76380;SDS011;65202;52.520;10.528;2023-12-20T03:25:35;24.23;;;3.67;;
76380;SDS011;65202;52.520;10.528;2023-12-20T03:28:03;27.08;;;3.80;;
76380;SDS011;65202;52.520;10.528;2023-12-20T03:30:30;19.88;;;3.45;;
76380;SDS011;65202;52.520;10.528;2023-12-20T03:32:57;20.95;;;3.88;;
76380;SDS011;65202;52.520;10.528;2023-12-20T03:35:25;19.92;;;3.30;;
76380;SDS011;65202;52.520;10.528;2023-12-20T03:37:52;26.02;;;4.00;;
76380;SDS011;65202;52.520;10.528;2023-12-20T03:40:20;13.57;;;2.83;;
76380;SDS011;65202;52.520;10.528;2023-12-20T03:42:47;18.70;;;3.35;;
76380;SDS011;65202;52.520;10.528;2023-12-20T03:45:14;20.35;;;3.53;;
76380;SDS011;65202;52.520;10.528;2023-12-20T03:47:42;18.80;;;3.17;;
76380;SDS011;65202;52.520;10.528;2023-12-20T03:50:09;19.60;;;3.97;;
76380;SDS011;65202;52.520;10.528;2023-12-20T03:52:37;24.52;;;3.90;;
76380;SDS011;65202;52.520;10.528;2023-12-20T03:55:04;22.60;;;3.78;;
76380;SDS011;65202;52.520;10.528;2023-12-20T03:57:32;19.58;;;3.33;;
76380;SDS011;65202;52.520;10.528;2023-12-20T03:59:59;25.45;;;3.53;;
76380;SDS011;65202;52.520;10.528;2023-12-20T04:02:26;15.25;;;3.60;;
76380;SDS011;65202;52.520;10.528;2023-12-20T04:04:54;16.92;;;3.75;;
76380;SDS011;65202;52.520;10.528;2023-12-20T04:07:21;18.08;;;3.78;;
76380;SDS011;65202;52.520;10.528;2023-12-20T04:09:48;16.77;;;4.05;;
76380;SDS011;65202;52.520;10.528;2023-12-20T04:12:16;21.40;;;4.30;;
76380;SDS011;65202;52.520;10.528;2023-12-20T04:14:43;20.95;;;4.78;;
76380;SDS011;65202;52.520;10.528;2023-12-20T04:17:10;22.17;;;4.15;;
76380;SDS011;65202;52.520;10.528;2023-12-20T04:19:37;20.08;;;4.00;;
76380;SDS011;65202;52.520;10.528;2023-12-20T04:22:05;15.50;;;3.50;;
76380;SDS011;65202;52.520;10.528;2023-12-20T04:24:32;20.63;;;4.85;;
76380;SDS011;65202;52.520;10.528;2023-12-20T04:26:59;24.70;;;4.35;;
76380;SDS011;65202;52.520;10.528;2023-12-20T04:29:27;19.10;;;3.55;;
76380;SDS011;65202;52.520;10.528;2023-12-20T04:31:54;23.05;;;4.03;;
76380;SDS011;65202;52.520;10.528;2023-12-20T04:34:22;18.27;;;3.80;;
76380;SDS011;65202;52.520;10.528;2023-12-20T04:36:50;21.45;;;3.92;;
76380;SDS011;65202;52.520;10.528;2023-12-20T04:39:17;18.00;;;3.25;;
76380;SDS011;65202;52.520;10.528;2023-12-20T04:41:44;16.17;;;3.28;;
76380;SDS011;65202;52.520;10.528;2023-12-20T04:44:12;15.18;;;3.03;;
76380;SDS011;65202;52.520;10.528;2023-12-20T04:46:39;50.22;;;16.40;;
76380;SDS011;65202;52.520;10.528;2023-12-20T04:49:06;24.58;;;5.88;;
76380;SDS011;65202;52.520;10.528;2023-12-20T04:51:34;16.92;;;3.40;;
76380;SDS011;65202;52.520;10.528;2023-12-20T04:54:02;24.60;;;3.38;;
76380;SDS011;65202;52.520;10.528;2023-12-20T04:56:29;19.50;;;2.80;;
76380;SDS011;65202;52.520;10.528;2023-12-20T04:58:56;18.58;;;3.30;;
76380;SDS011;65202;52.520;10.528;2023-12-20T05:01:24;10.93;;;2.58;;
76380;SDS011;65202;52.520;10.528;2023-12-20T05:03:51;13.35;;;2.50;;
76380;SDS011;65202;52.520;10.528;2023-12-20T05:06:18;18.48;;;2.53;;
76380;SDS011;65202;52.520;10.528;2023-12-20T05:08:45;16.20;;;2.83;;
76380;SDS011;65202;52.520;10.528;2023-12-20T05:11:13;16.42;;;2.47;;
76380;SDS011;65202;52.520;10.528;2023-12-20T05:13:42;16.95;;;2.80;;
76380;SDS011;65202;52.520;10.528;2023-12-20T05:16:16;23.40;;;2.97;;
76380;SDS011;65202;52.520;10.528;2023-12-20T05:18:47;15.63;;;2.53;;
76380;SDS011;65202;52.520;10.528;2023-12-20T05:21:16;22.80;;;2.75;;
76380;SDS011;65202;52.520;10.528;2023-12-20T05:23:43;27.38;;;3.33;;
76380;SDS011;65202;52.520;10.528;2023-12-20T05:26:11;20.98;;;3.28;;
76380;SDS011;65202;52.520;10.528;2023-12-20T05:28:38;18.52;;;3.13;;
76380;SDS011;65202;52.520;10.528;2023-12-20T05:31:05;20.48;;;3.08;;
76380;SDS011;65202;52.520;10.528;2023-12-20T05:33:33;22.33;;;3.60;;
76380;SDS011;65202;52.520;10.528;2023-12-20T05:36:01;22.13;;;3.70;;
76380;SDS011;65202;52.520;10.528;2023-12-20T05:38:28;17.33;;;3.40;;
76380;SDS011;65202;52.520;10.528;2023-12-20T05:40:55;18.80;;;3.40;;
76380;SDS011;65202;52.520;10.528;2023-12-20T05:43:23;16.42;;;3.35;;
76380;SDS011;65202;52.520;10.528;2023-12-20T05:45:51;18.17;;;3.50;;
76380;SDS011;65202;52.520;10.528;2023-12-20T05:48:18;22.50;;;4.05;;
76380;SDS011;65202;52.520;10.528;2023-12-20T05:50:45;22.30;;;3.83;;
76380;SDS011;65202;52.520;10.528;2023-12-20T05:53:12;21.77;;;4.00;;
76380;SDS011;65202;52.520;10.528;2023-12-20T05:55:40;15.63;;;3.38;;
76380;SDS011;65202;52.520;10.528;2023-12-20T05:58:07;20.35;;;4.15;;
76380;SDS011;65202;52.520;10.528;2023-12-20T06:00:37;20.42;;;5.50;;
76380;SDS011;65202;52.520;10.528;2023-12-20T06:03:05;25.45;;;5.70;;
76380;SDS011;65202;52.520;10.528;2023-12-20T06:05:32;24.83;;;6.15;;
76380;SDS011;65202;52.520;10.528;2023-12-20T06:07:59;23.80;;;3.75;;
76380;SDS011;65202;52.520;10.528;2023-12-20T06:10:29;20.73;;;4.30;;
76380;SDS011;65202;52.520;10.528;2023-12-20T06:12:56;22.20;;;4.63;;
76380;SDS011;65202;52.520;10.528;2023-12-20T06:15:25;23.10;;;3.83;;
76380;SDS011;65202;52.520;10.528;2023-12-20T06:17:53;25.92;;;4.50;;
76380;SDS011;65202;52.520;10.528;2023-12-20T06:20:20;35.20;;;5.18;;
76380;SDS011;65202;52.520;10.528;2023-12-20T06:22:48;22.17;;;4.28;;
76380;SDS011;65202;52.520;10.528;2023-12-20T06:25:15;21.90;;;4.10;;
76380;SDS011;65202;52.520;10.528;2023-12-20T06:27:43;24.52;;;4.40;;
76380;SDS011;65202;52.520;10.528;2023-12-20T06:30:10;24.50;;;3.90;;
76380;SDS011;65202;52.520;10.528;2023-12-20T06:32:38;28.85;;;4.75;;
76380;SDS011;65202;52.520;10.528;2023-12-20T06:35:06;36.28;;;7.60;;
76380;SDS011;65202;52.520;10.528;2023-12-20T06:37:34;20.45;;;3.97;;
76380;SDS011;65202;52.520;10.528;2023-12-20T06:40:01;22.90;;;4.07;;
76380;SDS011;65202;52.520;10.528;2023-12-20T06:42:29;22.25;;;4.25;;
76380;SDS011;65202;52.520;10.528;2023-12-20T06:45:00;20.15;;;3.53;;
76380;SDS011;65202;52.520;10.528;2023-12-20T06:47:28;20.98;;;4.03;;
76380;SDS011;65202;52.520;10.528;2023-12-20T06:49:55;24.73;;;4.72;;
76380;SDS011;65202;52.520;10.528;2023-12-20T06:52:25;27.98;;;6.47;;
76380;SDS011;65202;52.520;10.528;2023-12-20T06:54:52;25.33;;;6.00;;
76380;SDS011;65202;52.520;10.528;2023-12-20T06:57:20;27.42;;;6.18;;
76380;SDS011;65202;52.520;10.528;2023-12-20T06:59:47;24.88;;;4.80;;
76380;SDS011;65202;52.520;10.528;2023-12-20T07:02:14;21.60;;;4.38;;
76380;SDS011;65202;52.520;10.528;2023-12-20T07:04:41;16.92;;;4.10;;
76380;SDS011;65202;52.520;10.528;2023-12-20T07:07:09;22.48;;;4.43;;
76380;SDS011;65202;52.520;10.528;2023-12-20T07:09:36;20.83;;;3.92;;
76380;SDS011;65202;52.520;10.528;2023-12-20T07:12:05;20.48;;;3.80;;
76380;SDS011;65202;52.520;10.528;2023-12-20T07:14:32;25.92;;;4.65;;
76380;SDS011;65202;52.520;10.528;2023-12-20T07:17:00;21.85;;;4.43;;
76380;SDS011;65202;52.520;10.528;2023-12-20T07:19:27;26.20;;;4.22;;
76380;SDS011;65202;52.520;10.528;2023-12-20T07:21:54;30.13;;;7.90;;
76380;SDS011;65202;52.520;10.528;2023-12-20T07:24:21;32.33;;;8.07;;
76380;SDS011;65202;52.520;10.528;2023-12-20T07:26:49;28.05;;;4.72;;
76380;SDS011;65202;52.520;10.528;2023-12-20T07:29:16;19.60;;;4.55;;
76380;SDS011;65202;52.520;10.528;2023-12-20T07:31:43;32.05;;;4.25;;
76380;SDS011;65202;52.520;10.528;2023-12-20T07:34:11;22.45;;;4.32;;
76380;SDS011;65202;52.520;10.528;2023-12-20T07:36:38;29.48;;;4.43;;
76380;SDS011;65202;52.520;10.528;2023-12-20T07:39:07;35.75;;;4.63;;
76380;SDS011;65202;52.520;10.528;2023-12-20T07:41:34;26.88;;;4.63;;
76380;SDS011;65202;52.520;10.528;2023-12-20T07:44:01;28.60;;;4.45;;
76380;SDS011;65202;52.520;10.528;2023-12-20T07:46:28;23.27;;;4.13;;
76380;SDS011;65202;52.520;10.528;2023-12-20T07:48:56;27.83;;;4.80;;
76380;SDS011;65202;52.520;10.528;2023-12-20T07:51:23;22.58;;;4.45;;
76380;SDS011;65202;52.520;10.528;2023-12-20T07:53:51;22.42;;;4.93;;
76380;SDS011;65202;52.520;10.528;2023-12-20T07:56:19;32.92;;;4.80;;
76380;SDS011;65202;52.520;10.528;2023-12-20T07:58:47;20.25;;;4.20;;
76380;SDS011;65202;52.520;10.528;2023-12-20T08:01:19;20.35;;;4.32;;
76380;SDS011;65202;52.520;10.528;2023-12-20T08:03:48;28.13;;;4.40;;
76380;SDS011;65202;52.520;10.528;2023-12-20T08:06:16;22.35;;;4.90;;
76380;SDS011;65202;52.520;10.528;2023-12-20T08:08:44;25.95;;;4.85;;
76380;SDS011;65202;52.520;10.528;2023-12-20T08:11:18;23.90;;;4.90;;
76380;SDS011;65202;52.520;10.528;2023-12-20T08:13:46;27.30;;;4.75;;
76380;SDS011;65202;52.520;10.528;2023-12-20T08:16:13;27.55;;;4.63;;
76380;SDS011;65202;52.520;10.528;2023-12-20T08:18:43;26.63;;;4.38;;
76380;SDS011;65202;52.520;10.528;2023-12-20T08:21:11;21.83;;;4.03;;
76380;SDS011;65202;52.520;10.528;2023-12-20T08:23:38;16.83;;;3.90;;
76380;SDS011;65202;52.520;10.528;2023-12-20T08:26:06;20.05;;;4.00;;
76380;SDS011;65202;52.520;10.528;2023-12-20T08:28:36;23.08;;;4.15;;
76380;SDS011;65202;52.520;10.528;2023-12-20T08:31:03;23.65;;;3.95;;
76380;SDS011;65202;52.520;10.528;2023-12-20T08:33:31;14.70;;;3.70;;
76380;SDS011;65202;52.520;10.528;2023-12-20T08:35:59;23.60;;;4.32;;
76380;SDS011;65202;52.520;10.528;2023-12-20T08:38:26;20.63;;;4.15;;
76380;SDS011;65202;52.520;10.528;2023-12-20T08:40:53;23.35;;;4.05;;
76380;SDS011;65202;52.520;10.528;2023-12-20T08:43:20;20.58;;;3.35;;
76380;SDS011;65202;52.520;10.528;2023-12-20T08:45:48;24.00;;;4.07;;
76380;SDS011;65202;52.520;10.528;2023-12-20T08:48:15;21.27;;;4.55;;
76380;SDS011;65202;52.520;10.528;2023-12-20T08:50:43;20.48;;;3.75;;
76380;SDS011;65202;52.520;10.528;2023-12-20T08:53:10;24.33;;;4.85;;
76380;SDS011;65202;52.520;10.528;2023-12-20T08:55:38;16.38;;;3.75;;
76380;SDS011;65202;52.520;10.528;2023-12-20T08:58:05;13.88;;;3.25;;
76380;SDS011;65202;52.520;10.528;2023-12-20T09:00:34;25.75;;;4.35;;
76380;SDS011;65202;52.520;10.528;2023-12-20T09:03:02;18.95;;;3.65;;
76380;SDS011;65202;52.520;10.528;2023-12-20T09:05:29;19.60;;;3.35;;
76380;SDS011;65202;52.520;10.528;2023-12-20T09:07:57;19.42;;;3.58;;
76380;SDS011;65202;52.520;10.528;2023-12-20T09:10:25;19.17;;;3.17;;
76380;SDS011;65202;52.520;10.528;2023-12-20T09:12:53;17.10;;;3.85;;
76380;SDS011;65202;52.520;10.528;2023-12-20T09:15:25;24.07;;;3.97;;
76380;SDS011;65202;52.520;10.528;2023-12-20T09:17:53;22.05;;;3.72;;
76380;SDS011;65202;52.520;10.528;2023-12-20T09:20:21;24.55;;;4.05;;
76380;SDS011;65202;52.520;10.528;2023-12-20T09:22:50;21.98;;;3.65;;
76380;SDS011;65202;52.520;10.528;2023-12-20T09:25:18;21.27;;;3.80;;
76380;SDS011;65202;52.520;10.528;2023-12-20T09:27:45;18.98;;;4.05;;
76380;SDS011;65202;52.520;10.528;2023-12-20T09:30:13;18.10;;;4.28;;
76380;SDS011;65202;52.520;10.528;2023-12-20T09:32:54;21.90;;;4.47;;
76380;SDS011;65202;52.520;10.528;2023-12-20T09:35:22;16.40;;;3.92;;
76380;SDS011;65202;52.520;10.528;2023-12-20T09:37:50;24.58;;;4.65;;
76380;SDS011;65202;52.520;10.528;2023-12-20T09:40:20;19.33;;;3.80;;
76380;SDS011;65202;52.520;10.528;2023-12-20T09:42:50;22.20;;;4.07;;
76380;SDS011;65202;52.520;10.528;2023-12-20T09:45:25;19.10;;;4.32;;
76380;SDS011;65202;52.520;10.528;2023-12-20T09:47:53;19.92;;;3.88;;
76380;SDS011;65202;52.520;10.528;2023-12-20T09:50:24;17.67;;;3.75;;
76380;SDS011;65202;52.520;10.528;2023-12-20T09:52:53;22.88;;;4.30;;
76380;SDS011;65202;52.520;10.528;2023-12-20T09:55:23;19.63;;;4.07;;
76380;SDS011;65202;52.520;10.528;2023-12-20T09:57:52;20.45;;;3.78;;
76380;SDS011;65202;52.520;10.528;2023-12-20T10:00:20;16.23;;;4.07;;
76380;SDS011;65202;52.520;10.528;2023-12-20T10:02:56;21.75;;;4.43;;
76380;SDS011;65202;52.520;10.528;2023-12-20T10:05:29;19.10;;;4.55;;
76380;SDS011;65202;52.520;10.528;2023-12-20T10:08:00;21.58;;;3.88;;
76380;SDS011;65202;52.520;10.528;2023-12-20T10:10:29;19.02;;;3.95;;
76380;SDS011;65202;52.520;10.528;2023-12-20T10:13:11;21.90;;;4.00;;
76380;SDS011;65202;52.520;10.528;2023-12-20T10:15:40;17.88;;;4.47;;
76380;SDS011;65202;52.520;10.528;2023-12-20T10:18:09;21.60;;;5.40;;
76380;SDS011;65202;52.520;10.528;2023-12-20T10:20:40;20.92;;;4.10;;
76380;SDS011;65202;52.520;10.528;2023-12-20T10:23:09;20.38;;;3.72;;
76380;SDS011;65202;52.520;10.528;2023-12-20T10:25:37;23.15;;;3.58;;
76380;SDS011;65202;52.520;10.528;2023-12-20T10:28:12;25.35;;;3.95;;
76380;SDS011;65202;52.520;10.528;2023-12-20T10:30:46;18.42;;;4.00;;
76380;SDS011;65202;52.520;10.528;2023-12-20T10:33:13;22.33;;;3.72;;
76380;SDS011;65202;52.520;10.528;2023-12-20T10:35:54;18.33;;;3.95;;
76380;SDS011;65202;52.520;10.528;2023-12-20T10:38:23;26.63;;;5.05;;
76380;SDS011;65202;52.520;10.528;2023-12-20T10:40:56;17.60;;;4.18;;
76380;SDS011;65202;52.520;10.528;2023-12-20T10:43:28;20.70;;;3.78;;
76380;SDS011;65202;52.520;10.528;2023-12-20T10:45:59;16.95;;;3.70;;
76380;SDS011;65202;52.520;10.528;2023-12-20T10:48:28;25.92;;;4.85;;
76380;SDS011;65202;52.520;10.528;2023-12-20T10:51:02;22.08;;;4.25;;
76380;SDS011;65202;52.520;10.528;2023-12-20T10:53:34;18.63;;;4.13;;
76380;SDS011;65202;52.520;10.528;2023-12-20T10:56:04;17.38;;;4.22;;
76380;SDS011;65202;52.520;10.528;2023-12-20T10:58:35;17.52;;;4.18;;
76380;SDS011;65202;52.520;10.528;2023-12-20T11:01:06;26.45;;;4.22;;
76380;SDS011;65202;52.520;10.528;2023-12-20T11:03:38;19.25;;;4.18;;
76380;SDS011;65202;52.520;10.528;2023-12-20T11:09:04;23.40;;;4.18;;
76380;SDS011;65202;52.520;10.528;2023-12-20T11:12:10;16.27;;;3.25;;
76380;SDS011;65202;52.520;10.528;2023-12-20T11:14:53;24.85;;;3.97;;
76380;SDS011;65202;52.520;10.528;2023-12-20T11:17:31;15.18;;;3.45;;
76380;SDS011;65202;52.520;10.528;2023-12-20T11:22:32;14.88;;;3.35;;
76380;SDS011;65202;52.520;10.528;2023-12-20T11:27:41;18.33;;;3.40;;
76380;SDS011;65202;52.520;10.528;2023-12-20T11:30:15;17.58;;;3.67;;
76380;SDS011;65202;52.520;10.528;2023-12-20T11:32:45;17.15;;;3.50;;
76380;SDS011;65202;52.520;10.528;2023-12-20T11:35:22;14.38;;;3.10;;
76380;SDS011;65202;52.520;10.528;2023-12-20T11:37:51;14.68;;;3.40;;
76380;SDS011;65202;52.520;10.528;2023-12-20T11:40:18;14.82;;;3.50;;
76380;SDS011;65202;52.520;10.528;2023-12-20T11:42:52;19.42;;;4.40;;
76380;SDS011;65202;52.520;10.528;2023-12-20T11:45:27;13.75;;;3.53;;
76380;SDS011;65202;52.520;10.528;2023-12-20T11:47:57;21.88;;;3.88;;
76380;SDS011;65202;52.520;10.528;2023-12-20T11:50:25;21.52;;;4.43;;
76380;SDS011;65202;52.520;10.528;2023-12-20T11:52:53;17.45;;;3.78;;
76380;SDS011;65202;52.520;10.528;2023-12-20T11:55:22;22.83;;;3.92;;
76380;SDS011;65202;52.520;10.528;2023-12-20T11:57:56;21.92;;;4.63;;
76380;SDS011;65202;52.520;10.528;2023-12-20T12:00:29;8.68;;;1.90;;
76380;SDS011;65202;52.520;10.528;2023-12-20T12:03:00;5.80;;;1.10;;
76380;SDS011;65202;52.520;10.528;2023-12-20T12:05:30;6.15;;;1.35;;
76380;SDS011;65202;52.520;10.528;2023-12-20T12:08:02;2.70;;;0.70;;
76380;SDS011;65202;52.520;10.528;2023-12-20T12:10:33;5.07;;;0.73;;
76380;SDS011;65202;52.520;10.528;2023-12-20T12:13:01;2.33;;;0.77;;
76380;SDS011;65202;52.520;10.528;2023-12-20T12:15:32;3.92;;;0.73;;
76380;SDS011;65202;52.520;10.528;2023-12-20T12:18:00;2.88;;;0.95;;
76380;SDS011;65202;52.520;10.528;2023-12-20T12:20:28;7.82;;;0.88;;
76380;SDS011;65202;52.520;10.528;2023-12-20T12:22:58;3.88;;;1.00;;
76380;SDS011;65202;52.520;10.528;2023-12-20T12:25:36;4.07;;;0.93;;
76380;SDS011;65202;52.520;10.528;2023-12-20T12:28:09;2.67;;;0.82;;
76380;SDS011;65202;52.520;10.528;2023-12-20T12:30:38;5.55;;;0.75;;
76380;SDS011;65202;52.520;10.528;2023-12-20T12:33:19;4.75;;;1.13;;
76380;SDS011;65202;52.520;10.528;2023-12-20T12:35:50;1.95;;;0.80;;
76380;SDS011;65202;52.520;10.528;2023-12-20T12:38:22;4.55;;;0.80;;
76380;SDS011;65202;52.520;10.528;2023-12-20T12:40:54;3.38;;;0.88;;
76380;SDS011;65202;52.520;10.528;2023-12-20T12:43:27;5.53;;;1.45;;
76380;SDS011;65202;52.520;10.528;2023-12-20T12:45:58;4.45;;;1.00;;
76380;SDS011;65202;52.520;10.528;2023-12-20T12:48:26;7.82;;;1.40;;
76380;SDS011;65202;52.520;10.528;2023-12-20T12:50:55;7.05;;;1.67;;
76380;SDS011;65202;52.520;10.528;2023-12-20T12:53:26;6.85;;;1.40;;
76380;SDS011;65202;52.520;10.528;2023-12-20T12:55:54;6.20;;;1.50;;
76380;SDS011;65202;52.520;10.528;2023-12-20T12:58:21;10.27;;;1.55;;
76380;SDS011;65202;52.520;10.528;2023-12-20T13:00:49;11.45;;;1.75;;
76380;SDS011;65202;52.520;10.528;2023-12-20T13:03:16;8.25;;;1.70;;
76380;SDS011;65202;52.520;10.528;2023-12-20T13:05:44;6.75;;;1.70;;
76380;SDS011;65202;52.520;10.528;2023-12-20T13:08:13;10.45;;;1.92;;
76380;SDS011;65202;52.520;10.528;2023-12-20T13:10:42;7.35;;;1.70;;
76380;SDS011;65202;52.520;10.528;2023-12-20T13:13:09;9.75;;;2.72;;
76380;SDS011;65202;52.520;10.528;2023-12-20T13:15:36;14.10;;;3.20;;
76380;SDS011;65202;52.520;10.528;2023-12-20T13:18:04;13.07;;;3.40;;
76380;SDS011;65202;52.520;10.528;2023-12-20T13:20:33;9.32;;;2.03;;
76380;SDS011;65202;52.520;10.528;2023-12-20T13:23:00;9.32;;;2.20;;
76380;SDS011;65202;52.520;10.528;2023-12-20T13:25:28;7.72;;;1.70;;
76380;SDS011;65202;52.520;10.528;2023-12-20T13:27:55;9.32;;;2.13;;
76380;SDS011;65202;52.520;10.528;2023-12-20T13:30:22;8.20;;;1.80;;
76380;SDS011;65202;52.520;10.528;2023-12-20T13:32:49;12.23;;;2.15;;
76380;SDS011;65202;52.520;10.528;2023-12-20T13:35:17;9.43;;;1.80;;
76380;SDS011;65202;52.520;10.528;2023-12-20T13:37:44;5.60;;;1.80;;
76380;SDS011;65202;52.520;10.528;2023-12-20T13:40:12;7.90;;;1.70;;
76380;SDS011;65202;52.520;10.528;2023-12-20T13:42:40;7.75;;;1.77;;
76380;SDS011;65202;52.520;10.528;2023-12-20T13:45:07;7.63;;;2.13;;
76380;SDS011;65202;52.520;10.528;2023-12-20T13:47:35;7.95;;;1.80;;
76380;SDS011;65202;52.520;10.528;2023-12-20T13:50:03;15.52;;;2.53;;
76380;SDS011;65202;52.520;10.528;2023-12-20T13:52:31;10.25;;;2.08;;
76380;SDS011;65202;52.520;10.528;2023-12-20T13:54:59;11.25;;;1.88;;
76380;SDS011;65202;52.520;10.528;2023-12-20T13:57:27;8.75;;;1.60;;
76380;SDS011;65202;52.520;10.528;2023-12-20T14:00:16;10.52;;;1.50;;
76380;SDS011;65202;52.520;10.528;2023-12-20T14:02:44;8.30;;;1.90;;
76380;SDS011;65202;52.520;10.528;2023-12-20T14:05:13;8.15;;;1.70;;
76380;SDS011;65202;52.520;10.528;2023-12-20T14:07:44;9.90;;;1.63;;
76380;SDS011;65202;52.520;10.528;2023-12-20T14:10:13;15.90;;;2.28;;
76380;SDS011;65202;52.520;10.528;2023-12-20T14:12:41;9.52;;;1.83;;
76380;SDS011;65202;52.520;10.528;2023-12-20T14:15:08;7.97;;;1.67;;
76380;SDS011;65202;52.520;10.528;2023-12-20T14:17:39;12.75;;;2.00;;
76380;SDS011;65202;52.520;10.528;2023-12-20T14:20:09;11.45;;;1.80;;
76380;SDS011;65202;52.520;10.528;2023-12-20T14:22:39;11.07;;;1.67;;
76380;SDS011;65202;52.520;10.528;2023-12-20T14:25:11;10.60;;;1.55;;
76380;SDS011;65202;52.520;10.528;2023-12-20T14:27:41;10.02;;;1.67;;
76380;SDS011;65202;52.520;10.528;2023-12-20T14:30:11;13.25;;;1.77;;
76380;SDS011;65202;52.520;10.528;2023-12-20T14:32:41;10.30;;;1.83;;
76380;SDS011;65202;52.520;10.528;2023-12-20T14:35:09;10.85;;;1.77;;
76380;SDS011;65202;52.520;10.528;2023-12-20T14:37:37;9.13;;;1.52;;
76380;SDS011;65202;52.520;10.528;2023-12-20T14:40:08;15.38;;;2.00;;